IBE0139 LEMD-SEQM
Flight info
| Callsign | IBE0139 |
|---|---|
| Flight time | N/A |
| Altitude | 35000 |
| Route | ZMR L155 ADORO DCT BANAL/M085F380 DCT 42N020W 3930N03000W 3430N04000W 27N050W/M085F400 23N055W DCT BNJEE/N0488F400 DCT PPR DCT ITEGO UP533 PBL UW50 BNS UP533 BOKAN UP778 QIT |
| Aircraft | A359/H-SDE2E3GHIJ3J4J5LM1ORWXY/LB1D1 |
Departure
| Time | 2026-05-07 22:39 |
|---|---|
| Airport | Adolfo Suárez Madrid–Barajas Airport (LEMD) |
Arrival
| Time | N/A |
|---|---|
| Airport | Mariscal Sucre International Airport (SEQM) |
| Time | Latitude | Longitude | Altitude | Speed | Heading |
|---|---|---|---|---|---|
| 2026-05-07 22:12 | 40.49285 | -3.56870 | 1978 ft | 0 kts | 90° |
| 2026-05-07 22:29 | 40.49285 | -3.56872 | 1978 ft | 1 kts | 90° |
| 2026-05-07 22:29 | 40.49286 | -3.56893 | 1978 ft | 3 kts | 96° |
| 2026-05-07 22:29 | 40.49289 | -3.56919 | 1978 ft | 3 kts | 107° |
| 2026-05-07 22:29 | 40.49296 | -3.56944 | 1980 ft | 5 kts | 119° |
| 2026-05-07 22:30 | 40.49307 | -3.56966 | 1982 ft | 6 kts | 132° |
| 2026-05-07 22:30 | 40.49322 | -3.56984 | 1982 ft | 7 kts | 146° |
| 2026-05-07 22:30 | 40.49339 | -3.56997 | 1983 ft | 7 kts | 161° |
| 2026-05-07 22:30 | 40.49358 | -3.57003 | 1982 ft | 6 kts | 176° |
| 2026-05-07 22:31 | 40.49365 | -3.57004 | 1982 ft | 3 kts | 180° |
| 2026-05-07 22:33 | 40.49350 | -3.57003 | 1982 ft | 4 kts | 179° |
| 2026-05-07 22:33 | 40.49322 | -3.57009 | 1985 ft | 6 kts | 196° |
| 2026-05-07 22:33 | 40.49292 | -3.57058 | 1986 ft | 11 kts | 248° |
| 2026-05-07 22:33 | 40.49248 | -3.57111 | 1987 ft | 8 kts | 194° |
| 2026-05-07 22:34 | 40.49200 | -3.57126 | 1990 ft | 5 kts | 211° |
| 2026-05-07 22:34 | 40.49190 | -3.57150 | 1990 ft | 3 kts | 244° |
| 2026-05-07 22:34 | 40.49184 | -3.57194 | 1992 ft | 6 kts | 267° |
| 2026-05-07 22:34 | 40.49182 | -3.57242 | 1990 ft | 5 kts | 267° |
| 2026-05-07 22:35 | 40.49181 | -3.57284 | 1989 ft | 4 kts | 267° |
| 2026-05-07 22:35 | 40.49180 | -3.57324 | 1990 ft | 4 kts | 270° |
| 2026-05-07 22:35 | 40.49180 | -3.57365 | 1990 ft | 5 kts | 270° |
| 2026-05-07 22:35 | 40.49190 | -3.57423 | 1994 ft | 6 kts | 304° |
| 2026-05-07 22:36 | 40.49223 | -3.57445 | 1993 ft | 7 kts | 342° |
| 2026-05-07 22:36 | 40.49279 | -3.57452 | 1991 ft | 7 kts | 2° |
| 2026-05-07 22:36 | 40.49282 | -3.57452 | 1989 ft | 0 kts | 2° |
| 2026-05-07 22:38 | 40.49350 | -3.57448 | 1991 ft | 34 kts | 1° |
| 2026-05-07 22:38 | 40.49779 | -3.57455 | 1994 ft | 87 kts | 359° |
| 2026-05-07 22:38 | 40.50545 | -3.57461 | 1999 ft | 131 kts | 359° |
| 2026-05-07 22:38 | 40.51594 | -3.57470 | 2006 ft | 170 kts | 359° |
| 2026-05-07 22:39 | 40.52779 | -3.57483 | 2481 ft | 166 kts | 359° |
| 2026-05-07 22:39 | 40.53896 | -3.57491 | 3087 ft | 162 kts | 359° |
| 2026-05-07 22:39 | 40.55087 | -3.57409 | 3299 ft | 181 kts | 8° |
| 2026-05-07 22:39 | 40.56387 | -3.57014 | 3509 ft | 202 kts | 15° |
| 2026-05-07 22:40 | 40.57801 | -3.56482 | 3811 ft | 219 kts | 17° |
| 2026-05-07 22:40 | 40.59291 | -3.55911 | 4226 ft | 227 kts | 17° |
| 2026-05-07 22:40 | 40.60838 | -3.55383 | 4677 ft | 232 kts | 11° |
| 2026-05-07 22:40 | 40.62500 | -3.55422 | 4853 ft | 251 kts | 346° |
| 2026-05-07 22:41 | 40.64053 | -3.56602 | 4961 ft | 269 kts | 314° |
| 2026-05-07 22:41 | 40.65269 | -3.58523 | 5378 ft | 275 kts | 306° |
| 2026-05-07 22:41 | 40.66416 | -3.60557 | 5977 ft | 277 kts | 305° |
| 2026-05-07 22:41 | 40.67552 | -3.62579 | 6533 ft | 279 kts | 305° |
| 2026-05-07 22:42 | 40.68717 | -3.64636 | 7101 ft | 281 kts | 305° |
| 2026-05-07 22:42 | 40.69891 | -3.66700 | 7662 ft | 283 kts | 305° |
| 2026-05-07 22:42 | 40.71080 | -3.68779 | 8233 ft | 284 kts | 305° |
| 2026-05-07 22:42 | 40.72279 | -3.70874 | 8844 ft | 286 kts | 305° |
| 2026-05-07 22:43 | 40.73480 | -3.72972 | 9443 ft | 288 kts | 305° |
| 2026-05-07 22:43 | 40.74684 | -3.75074 | 10029 ft | 289 kts | 305° |
| 2026-05-07 22:43 | 40.75914 | -3.77226 | 10347 ft | 300 kts | 305° |
| 2026-05-07 22:43 | 40.77204 | -3.79487 | 10556 ft | 315 kts | 305° |
| 2026-05-07 22:44 | 40.78551 | -3.81846 | 10749 ft | 329 kts | 305° |
| 2026-05-07 22:44 | 40.79959 | -3.84310 | 10974 ft | 343 kts | 304° |
| 2026-05-07 22:44 | 40.81416 | -3.86868 | 11208 ft | 355 kts | 305° |
| 2026-05-07 22:44 | 40.82929 | -3.89523 | 11359 ft | 367 kts | 305° |
| 2026-05-07 22:45 | 40.84464 | -3.92211 | 11705 ft | 373 kts | 306° |
| 2026-05-07 22:45 | 40.86027 | -3.94955 | 12163 ft | 375 kts | 306° |
| 2026-05-07 22:45 | 40.87604 | -3.97725 | 12593 ft | 379 kts | 305° |
| 2026-05-07 22:45 | 40.89197 | -4.00524 | 13010 ft | 382 kts | 305° |
| 2026-05-07 22:46 | 40.90803 | -4.03354 | 13439 ft | 385 kts | 305° |
| 2026-05-07 22:46 | 40.92417 | -4.06199 | 13875 ft | 388 kts | 305° |
| 2026-05-07 22:46 | 40.94039 | -4.09064 | 14265 ft | 389 kts | 305° |
| 2026-05-07 22:46 | 40.95652 | -4.11913 | 14661 ft | 391 kts | 305° |
| 2026-05-07 22:47 | 40.97282 | -4.14794 | 15109 ft | 392 kts | 305° |
| 2026-05-07 22:47 | 40.98919 | -4.17692 | 15523 ft | 394 kts | 305° |
| 2026-05-07 22:47 | 41.00564 | -4.20605 | 15909 ft | 396 kts | 305° |
| 2026-05-07 22:47 | 41.02111 | -4.23624 | 16276 ft | 396 kts | 296° |
| 2026-05-07 22:48 | 41.03301 | -4.26910 | 16689 ft | 397 kts | 294° |
| 2026-05-07 22:48 | 41.04497 | -4.30219 | 17064 ft | 399 kts | 294° |
| 2026-05-07 22:48 | 41.05715 | -4.33540 | 17482 ft | 401 kts | 294° |
| 2026-05-07 22:48 | 41.06944 | -4.36869 | 17896 ft | 402 kts | 294° |
| 2026-05-07 22:49 | 41.08178 | -4.40209 | 18277 ft | 404 kts | 295° |
| 2026-05-07 22:49 | 41.09418 | -4.43564 | 18618 ft | 405 kts | 295° |
| 2026-05-07 22:49 | 41.10659 | -4.46923 | 18996 ft | 406 kts | 295° |
| 2026-05-07 22:49 | 41.11901 | -4.50289 | 19353 ft | 406 kts | 295° |
| 2026-05-07 22:50 | 41.13130 | -4.53622 | 19695 ft | 407 kts | 295° |
| 2026-05-07 22:50 | 41.14371 | -4.56991 | 20046 ft | 407 kts | 295° |
| 2026-05-07 22:50 | 41.15617 | -4.60376 | 20304 ft | 411 kts | 295° |
| 2026-05-07 22:50 | 41.16876 | -4.63803 | 20589 ft | 412 kts | 295° |
| 2026-05-07 22:51 | 41.18133 | -4.67229 | 20935 ft | 413 kts | 295° |
| 2026-05-07 22:51 | 41.19395 | -4.70669 | 21258 ft | 413 kts | 295° |
| 2026-05-07 22:51 | 41.20654 | -4.74109 | 21577 ft | 414 kts | 295° |
| 2026-05-07 22:51 | 41.21916 | -4.77559 | 21890 ft | 415 kts | 295° |
| 2026-05-07 22:52 | 41.23175 | -4.81006 | 22208 ft | 416 kts | 295° |
| 2026-05-07 22:52 | 41.24439 | -4.84472 | 22515 ft | 417 kts | 295° |
| 2026-05-07 22:52 | 41.25703 | -4.87939 | 22823 ft | 418 kts | 295° |
| 2026-05-07 22:52 | 41.26971 | -4.91424 | 23122 ft | 419 kts | 295° |
| 2026-05-07 22:53 | 41.28239 | -4.94913 | 23420 ft | 420 kts | 295° |
| 2026-05-07 22:53 | 41.29499 | -4.98379 | 23608 ft | 423 kts | 294° |
| 2026-05-07 22:53 | 41.30778 | -5.01915 | 23796 ft | 425 kts | 294° |
| 2026-05-07 22:53 | 41.31853 | -5.05575 | 24028 ft | 424 kts | 285° |
| 2026-05-07 22:54 | 41.32619 | -5.09360 | 24286 ft | 424 kts | 282° |
| 2026-05-07 22:54 | 41.33247 | -5.13192 | 24537 ft | 425 kts | 280° |
| 2026-05-07 22:54 | 41.33795 | -5.17050 | 24854 ft | 423 kts | 279° |
| 2026-05-07 22:54 | 41.34303 | -5.20911 | 25185 ft | 422 kts | 279° |
| 2026-05-07 22:55 | 41.34798 | -5.24749 | 25527 ft | 420 kts | 279° |
| 2026-05-07 22:55 | 41.35296 | -5.28588 | 25871 ft | 419 kts | 279° |
| 2026-05-07 22:55 | 41.35796 | -5.32403 | 26214 ft | 418 kts | 279° |
| 2026-05-07 22:55 | 41.36303 | -5.36213 | 26561 ft | 417 kts | 278° |
| 2026-05-07 22:56 | 41.36813 | -5.40017 | 26868 ft | 417 kts | 278° |
| 2026-05-07 22:56 | 41.37317 | -5.43768 | 27165 ft | 418 kts | 278° |
| 2026-05-07 22:56 | 41.37828 | -5.47580 | 27484 ft | 418 kts | 278° |
| 2026-05-07 22:56 | 41.38339 | -5.51392 | 27793 ft | 418 kts | 278° |
| 2026-05-07 22:57 | 41.38850 | -5.55210 | 28109 ft | 418 kts | 278° |
| 2026-05-07 22:57 | 41.39359 | -5.59026 | 28440 ft | 419 kts | 278° |
| 2026-05-07 22:57 | 41.39866 | -5.62846 | 28757 ft | 419 kts | 278° |
| 2026-05-07 22:57 | 41.40373 | -5.66667 | 29088 ft | 419 kts | 278° |
| 2026-05-07 22:58 | 41.40878 | -5.70490 | 29413 ft | 419 kts | 278° |
| 2026-05-07 22:58 | 41.41383 | -5.74322 | 29759 ft | 419 kts | 278° |
| 2026-05-07 22:58 | 41.41885 | -5.78148 | 29994 ft | 422 kts | 278° |
| 2026-05-07 22:59 | 41.42911 | -5.86006 | 29967 ft | 438 kts | 278° |
| 2026-05-07 22:59 | 41.43432 | -5.90017 | 30099 ft | 441 kts | 278° |
| 2026-05-07 22:59 | 41.43957 | -5.94051 | 30329 ft | 442 kts | 278° |
| 2026-05-07 22:59 | 41.44475 | -5.98045 | 30568 ft | 443 kts | 278° |
| 2026-05-07 23:00 | 41.44998 | -6.02090 | 30816 ft | 444 kts | 278° |
| 2026-05-07 23:00 | 41.45523 | -6.06148 | 31065 ft | 444 kts | 278° |
| 2026-05-07 23:00 | 41.46045 | -6.10208 | 31312 ft | 445 kts | 277° |
| 2026-05-07 23:00 | 41.46567 | -6.14280 | 31555 ft | 445 kts | 277° |
| 2026-05-07 23:01 | 41.47087 | -6.18346 | 31817 ft | 445 kts | 277° |
| 2026-05-07 23:01 | 41.47604 | -6.22412 | 32079 ft | 445 kts | 277° |
| 2026-05-07 23:01 | 41.48120 | -6.26477 | 32329 ft | 445 kts | 277° |
| 2026-05-07 23:01 | 41.48595 | -6.30551 | 32590 ft | 444 kts | 276° |
| 2026-05-07 23:02 | 41.49014 | -6.34632 | 32854 ft | 443 kts | 275° |
| 2026-05-07 23:02 | 41.49403 | -6.38710 | 33119 ft | 442 kts | 275° |
| 2026-05-07 23:02 | 41.49777 | -6.42732 | 33379 ft | 442 kts | 275° |
| 2026-05-07 23:02 | 41.50155 | -6.46808 | 33656 ft | 441 kts | 275° |
| 2026-05-07 23:03 | 41.50533 | -6.50862 | 33931 ft | 440 kts | 275° |
| 2026-05-07 23:03 | 41.50915 | -6.54917 | 34167 ft | 439 kts | 275° |
| 2026-05-07 23:03 | 41.51297 | -6.58960 | 34410 ft | 438 kts | 275° |
| 2026-05-07 23:03 | 41.51677 | -6.62982 | 34697 ft | 435 kts | 274° |
| 2026-05-07 23:04 | 41.52052 | -6.66940 | 34898 ft | 436 kts | 274° |
| 2026-05-07 23:04 | 41.52812 | -6.75042 | 34922 ft | 444 kts | 274° |
| 2026-05-07 23:05 | 41.53577 | -6.83245 | 34935 ft | 444 kts | 274° |